KCDW

Essex County Airport

Caldwell, New Jersey, USA
METAR KCDW 210353Z AUTO 21003KT 10SM CLR 01/M03 A3003 RMK AO2 SLP174 T00061028 TSNO
Observed Flight Rules
Jan-21 @ 03:53 UTC (58 minutes ago) Visual Flight Rules
Wind Visibility Clouds
210° at 3 knots 10 miles
  • Clear skies
Temperatures Readings
Current 1°C / 34°F
Dewpoint -3°C / 27°F
Humidity 75%
Altimeter 30.03" Hg
Pressure 1017.4 hPa
Elevation 64
METAR KCDW 210353Z AUTO 21003KT 10SM CLR 01/M03 A3003 RMK AO2 SLP174 T00061028 TSNO
Observed Flight Rules
Jan-21 @ 03:53 UTC
(58 minutes ago)
VFR
Wind Visibility
210° at 3 knots 10 miles
Clouds
  • Clear skies
Temperature Dewpoint
1°C / 34°F -3°C / 27°F
Humidity Altimeter Pressure
75% 30.03" Hg 1017.4 hPa